sensor_id;sensor_type;location;lat;lon;timestamp;pressure;altitude;pressure_sealevel;temperature;humidity
56070;BME280;41944;52.078;-0.058;2023-02-10T00:01:41;103388.32;;;0.48;86.86
56070;BME280;41944;52.078;-0.058;2023-02-10T00:04:11;103387.63;;;0.35;87.49
56070;BME280;41944;52.078;-0.058;2023-02-10T00:06:39;103394.88;;;0.35;87.25
56070;BME280;41944;52.078;-0.058;2023-02-10T00:09:06;103395.38;;;0.25;87.45
56070;BME280;41944;52.078;-0.058;2023-02-10T00:11:34;103400.33;;;0.21;88.07
56070;BME280;41944;52.078;-0.058;2023-02-10T00:14:01;103404.73;;;0.35;87.52
56070;BME280;41944;52.078;-0.058;2023-02-10T00:16:29;103397.58;;;0.18;87.58
56070;BME280;41944;52.078;-0.058;2023-02-10T00:18:55;103393.30;;;0.05;88.36
56070;BME280;41944;52.078;-0.058;2023-02-10T00:21:23;103397.42;;;0.05;88.24
56070;BME280;41944;52.078;-0.058;2023-02-10T00:23:50;103398.12;;;-0.05;88.65
56070;BME280;41944;52.078;-0.058;2023-02-10T00:26:17;103400.92;;;-0.08;89.04
56070;BME280;41944;52.078;-0.058;2023-02-10T00:28:44;103405.46;;;-0.11;89.04
56070;BME280;41944;52.078;-0.058;2023-02-10T00:31:13;103402.19;;;-0.16;89.03
56070;BME280;41944;52.078;-0.058;2023-02-10T00:33:41;103397.21;;;-0.10;89.19
56070;BME280;41944;52.078;-0.058;2023-02-10T00:36:10;103388.08;;;-0.09;89.01
56070;BME280;41944;52.078;-0.058;2023-02-10T00:38:38;103379.38;;;-0.09;89.06
56070;BME280;41944;52.078;-0.058;2023-02-10T00:41:07;103377.46;;;-0.13;89.37
56070;BME280;41944;52.078;-0.058;2023-02-10T00:43:35;103381.11;;;-0.21;89.92
56070;BME280;41944;52.078;-0.058;2023-02-10T00:46:02;103377.83;;;-0.23;89.67
56070;BME280;41944;52.078;-0.058;2023-02-10T00:48:30;103376.09;;;-0.05;89.26
56070;BME280;41944;52.078;-0.058;2023-02-10T00:50:58;103378.36;;;-0.15;89.71
56070;BME280;41944;52.078;-0.058;2023-02-10T00:53:26;103383.74;;;-0.13;89.78
56070;BME280;41944;52.078;-0.058;2023-02-10T00:55:53;103386.38;;;-0.17;89.16
56070;BME280;41944;52.078;-0.058;2023-02-10T00:58:21;103387.01;;;-0.18;89.38
56070;BME280;41944;52.078;-0.058;2023-02-10T01:00:48;103382.51;;;-0.28;89.85
56070;BME280;41944;52.078;-0.058;2023-02-10T01:03:16;103381.16;;;-0.33;90.05
56070;BME280;41944;52.078;-0.058;2023-02-10T01:05:43;103378.42;;;-0.35;90.39
56070;BME280;41944;52.078;-0.058;2023-02-10T01:08:12;103380.88;;;-0.34;90.68
56070;BME280;41944;52.078;-0.058;2023-02-10T01:10:39;103376.75;;;-0.29;90.84
56070;BME280;41944;52.078;-0.058;2023-02-10T01:13:08;103376.84;;;-0.30;90.75
56070;BME280;41944;52.078;-0.058;2023-02-10T01:15:40;103369.75;;;-0.28;90.55
56070;BME280;41944;52.078;-0.058;2023-02-10T01:18:07;103368.97;;;-0.35;90.38
56070;BME280;41944;52.078;-0.058;2023-02-10T01:20:33;103370.96;;;-0.44;90.67
56070;BME280;41944;52.078;-0.058;2023-02-10T01:23:01;103372.79;;;-0.44;90.94
56070;BME280;41944;52.078;-0.058;2023-02-10T01:25:28;103374.89;;;-0.36;90.61
56070;BME280;41944;52.078;-0.058;2023-02-10T01:27:55;103381.94;;;-0.29;90.24
56070;BME280;41944;52.078;-0.058;2023-02-10T01:30:22;103385.16;;;-0.15;90.02
56070;BME280;41944;52.078;-0.058;2023-02-10T01:32:52;103378.66;;;-0.22;89.86
56070;BME280;41944;52.078;-0.058;2023-02-10T01:35:19;103382.49;;;-0.35;90.54
56070;BME280;41944;52.078;-0.058;2023-02-10T01:37:46;103384.38;;;-0.37;90.54
56070;BME280;41944;52.078;-0.058;2023-02-10T01:40:14;103382.92;;;-0.32;90.57
56070;BME280;41944;52.078;-0.058;2023-02-10T01:42:40;103379.34;;;-0.26;91.17
56070;BME280;41944;52.078;-0.058;2023-02-10T01:45:19;103377.26;;;-0.34;91.24
56070;BME280;41944;52.078;-0.058;2023-02-10T01:47:49;103378.10;;;-0.32;91.79
56070;BME280;41944;52.078;-0.058;2023-02-10T01:50:18;103384.32;;;-0.32;92.00
56070;BME280;41944;52.078;-0.058;2023-02-10T01:52:47;103385.70;;;-0.24;91.62
56070;BME280;41944;52.078;-0.058;2023-02-10T01:55:18;103392.12;;;-0.37;92.01
56070;BME280;41944;52.078;-0.058;2023-02-10T01:57:48;103394.92;;;-0.34;91.71
56070;BME280;41944;52.078;-0.058;2023-02-10T02:00:16;103401.81;;;-0.42;92.66
56070;BME280;41944;52.078;-0.058;2023-02-10T02:02:44;103404.10;;;-0.46;92.53
56070;BME280;41944;52.078;-0.058;2023-02-10T02:05:22;103399.63;;;-0.46;92.85
56070;BME280;41944;52.078;-0.058;2023-02-10T02:07:53;103407.76;;;-0.50;92.85
56070;BME280;41944;52.078;-0.058;2023-02-10T02:10:24;103410.42;;;-0.49;92.42
56070;BME280;41944;52.078;-0.058;2023-02-10T02:12:57;103406.82;;;-0.56;92.82
56070;BME280;41944;52.078;-0.058;2023-02-10T02:15:34;103403.04;;;-0.56;92.58
56070;BME280;41944;52.078;-0.058;2023-02-10T02:18:11;103402.87;;;-0.62;93.21
56070;BME280;41944;52.078;-0.058;2023-02-10T02:21:05;103403.48;;;-0.64;93.01
56070;BME280;41944;52.078;-0.058;2023-02-10T02:26:17;103399.78;;;-0.65;93.83
56070;BME280;41944;52.078;-0.058;2023-02-10T02:29:03;103401.78;;;-0.65;94.09
56070;BME280;41944;52.078;-0.058;2023-02-10T02:31:45;103405.04;;;-0.67;94.27
56070;BME280;41944;52.078;-0.058;2023-02-10T02:34:19;103405.80;;;-0.62;93.81
56070;BME280;41944;52.078;-0.058;2023-02-10T02:36:51;103396.23;;;-0.59;93.76
56070;BME280;41944;52.078;-0.058;2023-02-10T02:39:21;103390.93;;;-0.54;94.83
56070;BME280;41944;52.078;-0.058;2023-02-10T02:42:16;103387.07;;;-0.50;94.11
56070;BME280;41944;52.078;-0.058;2023-02-10T02:44:46;103391.81;;;-0.50;93.99
56070;BME280;41944;52.078;-0.058;2023-02-10T02:47:21;103390.06;;;-0.46;94.96
56070;BME280;41944;52.078;-0.058;2023-02-10T02:50:00;103389.44;;;-0.44;95.53
56070;BME280;41944;52.078;-0.058;2023-02-10T02:52:39;103383.47;;;-0.43;95.44
56070;BME280;41944;52.078;-0.058;2023-02-10T02:55:13;103377.65;;;-0.42;95.04
56070;BME280;41944;52.078;-0.058;2023-02-10T02:57:49;103378.06;;;-0.37;95.35
56070;BME280;41944;52.078;-0.058;2023-02-10T03:00:20;103371.90;;;-0.34;95.18
56070;BME280;41944;52.078;-0.058;2023-02-10T03:02:49;103367.96;;;-0.42;94.65
56070;BME280;41944;52.078;-0.058;2023-02-10T03:05:18;103365.23;;;-0.50;94.75
56070;BME280;41944;52.078;-0.058;2023-02-10T03:07:45;103362.06;;;-0.54;94.62
56070;BME280;41944;52.078;-0.058;2023-02-10T03:10:12;103365.19;;;-0.57;95.46
56070;BME280;41944;52.078;-0.058;2023-02-10T03:10:13;103364.65;;;-0.57;95.45
56070;BME280;41944;52.078;-0.058;2023-02-10T03:12:40;103374.51;;;-0.61;94.63
56070;BME280;41944;52.078;-0.058;2023-02-10T03:15:08;103374.64;;;-0.58;95.29
56070;BME280;41944;52.078;-0.058;2023-02-10T03:17:35;103368.91;;;-0.55;95.83
56070;BME280;41944;52.078;-0.058;2023-02-10T03:20:03;103369.18;;;-0.58;95.18
56070;BME280;41944;52.078;-0.058;2023-02-10T03:22:30;103363.67;;;-0.55;96.39
56070;BME280;41944;52.078;-0.058;2023-02-10T03:24:57;103360.38;;;-0.55;96.33
56070;BME280;41944;52.078;-0.058;2023-02-10T03:27:24;103358.32;;;-0.49;96.93
56070;BME280;41944;52.078;-0.058;2023-02-10T03:29:51;103356.86;;;-0.44;97.98
56070;BME280;41944;52.078;-0.058;2023-02-10T03:32:19;103355.03;;;-0.43;96.87
56070;BME280;41944;52.078;-0.058;2023-02-10T03:34:46;103349.79;;;-0.34;97.59
56070;BME280;41944;52.078;-0.058;2023-02-10T03:37:13;103352.68;;;-0.27;97.59
56070;BME280;41944;52.078;-0.058;2023-02-10T03:39:41;103351.56;;;-0.35;97.11
56070;BME280;41944;52.078;-0.058;2023-02-10T03:42:08;103350.56;;;-0.42;97.25
56070;BME280;41944;52.078;-0.058;2023-02-10T03:44:34;103344.58;;;-0.47;98.13
56070;BME280;41944;52.078;-0.058;2023-02-10T03:47:02;103343.35;;;-0.52;97.50
56070;BME280;41944;52.078;-0.058;2023-02-10T03:49:29;103342.58;;;-0.53;97.85
56070;BME280;41944;52.078;-0.058;2023-02-10T03:51:56;103342.40;;;-0.57;97.14
56070;BME280;41944;52.078;-0.058;2023-02-10T03:54:23;103343.48;;;-0.59;97.23
56070;BME280;41944;52.078;-0.058;2023-02-10T03:56:50;103346.56;;;-0.60;97.66
56070;BME280;41944;52.078;-0.058;2023-02-10T03:59:17;103351.86;;;-0.51;97.98
56070;BME280;41944;52.078;-0.058;2023-02-10T04:01:44;103348.37;;;-0.50;98.79
56070;BME280;41944;52.078;-0.058;2023-02-10T04:04:11;103332.54;;;-0.44;98.54
56070;BME280;41944;52.078;-0.058;2023-02-10T04:06:39;103334.17;;;-0.49;98.06
56070;BME280;41944;52.078;-0.058;2023-02-10T04:09:06;103338.48;;;-0.50;97.95
56070;BME280;41944;52.078;-0.058;2023-02-10T04:11:33;103338.65;;;-0.52;98.45
56070;BME280;41944;52.078;-0.058;2023-02-10T04:14:01;103342.76;;;-0.52;98.00
56070;BME280;41944;52.078;-0.058;2023-02-10T04:16:28;103339.53;;;-0.46;98.28
56070;BME280;41944;52.078;-0.058;2023-02-10T04:18:55;103335.45;;;-0.50;98.14
56070;BME280;41944;52.078;-0.058;2023-02-10T04:21:23;103332.45;;;-0.54;98.09
56070;BME280;41944;52.078;-0.058;2023-02-10T04:23:50;103338.62;;;-0.50;98.90
56070;BME280;41944;52.078;-0.058;2023-02-10T04:26:17;103338.12;;;-0.51;98.36
56070;BME280;41944;52.078;-0.058;2023-02-10T04:28:45;103337.58;;;-0.54;97.70
56070;BME280;41944;52.078;-0.058;2023-02-10T04:31:11;103341.91;;;-0.62;96.83
56070;BME280;41944;52.078;-0.058;2023-02-10T04:33:38;103343.12;;;-0.67;97.02
56070;BME280;41944;52.078;-0.058;2023-02-10T04:36:06;103339.19;;;-0.66;97.38
56070;BME280;41944;52.078;-0.058;2023-02-10T04:38:33;103334.89;;;-0.65;97.91
56070;BME280;41944;52.078;-0.058;2023-02-10T04:41:01;103341.00;;;-0.65;98.55
56070;BME280;41944;52.078;-0.058;2023-02-10T04:43:28;103333.96;;;-0.66;97.84
56070;BME280;41944;52.078;-0.058;2023-02-10T04:45:55;103328.18;;;-0.71;97.44
56070;BME280;41944;52.078;-0.058;2023-02-10T04:48:22;103333.83;;;-0.75;96.79
56070;BME280;41944;52.078;-0.058;2023-02-10T04:50:49;103337.72;;;-0.75;96.03
56070;BME280;41944;52.078;-0.058;2023-02-10T04:53:17;103335.30;;;-0.80;96.86
56070;BME280;41944;52.078;-0.058;2023-02-10T04:55:44;103338.10;;;-0.81;97.27
56070;BME280;41944;52.078;-0.058;2023-02-10T04:58:11;103337.71;;;-0.81;97.73
56070;BME280;41944;52.078;-0.058;2023-02-10T05:00:38;103338.69;;;-0.83;98.26
56070;BME280;41944;52.078;-0.058;2023-02-10T05:03:05;103339.58;;;-0.82;98.71
56070;BME280;41944;52.078;-0.058;2023-02-10T05:05:32;103331.31;;;-0.83;98.22
56070;BME280;41944;52.078;-0.058;2023-02-10T05:07:59;103330.67;;;-0.82;97.96
56070;BME280;41944;52.078;-0.058;2023-02-10T05:10:28;103332.30;;;-0.82;98.23
56070;BME280;41944;52.078;-0.058;2023-02-10T05:12:54;103337.47;;;-0.85;98.09
56070;BME280;41944;52.078;-0.058;2023-02-10T05:15:22;103337.95;;;-0.93;98.53
56070;BME280;41944;52.078;-0.058;2023-02-10T05:17:49;103340.17;;;-0.99;98.33
56070;BME280;41944;52.078;-0.058;2023-02-10T05:20:16;103341.65;;;-0.87;98.43
56070;BME280;41944;52.078;-0.058;2023-02-10T05:22:43;103338.47;;;-0.89;98.44
56070;BME280;41944;52.078;-0.058;2023-02-10T05:25:11;103347.86;;;-0.90;99.24
56070;BME280;41944;52.078;-0.058;2023-02-10T05:27:39;103358.30;;;-0.94;99.58
56070;BME280;41944;52.078;-0.058;2023-02-10T05:30:07;103364.36;;;-0.91;100.00
56070;BME280;41944;52.078;-0.058;2023-02-10T05:32:34;103366.05;;;-0.96;99.75
56070;BME280;41944;52.078;-0.058;2023-02-10T05:35:01;103362.15;;;-0.91;98.99
56070;BME280;41944;52.078;-0.058;2023-02-10T05:37:28;103359.73;;;-0.95;99.02
56070;BME280;41944;52.078;-0.058;2023-02-10T05:39:55;103353.67;;;-0.91;98.77
56070;BME280;41944;52.078;-0.058;2023-02-10T05:42:23;103352.51;;;-1.00;98.58
56070;BME280;41944;52.078;-0.058;2023-02-10T05:44:50;103350.15;;;-0.78;98.47
56070;BME280;41944;52.078;-0.058;2023-02-10T05:47:17;103351.42;;;-0.79;98.13
56070;BME280;41944;52.078;-0.058;2023-02-10T05:49:45;103348.97;;;-0.85;98.37
56070;BME280;41944;52.078;-0.058;2023-02-10T05:52:11;103344.46;;;-0.92;98.62
56070;BME280;41944;52.078;-0.058;2023-02-10T05:54:38;103349.04;;;-0.95;99.17
56070;BME280;41944;52.078;-0.058;2023-02-10T05:57:05;103347.99;;;-0.81;98.34
56070;BME280;41944;52.078;-0.058;2023-02-10T05:59:32;103354.18;;;-0.95;97.77
56070;BME280;41944;52.078;-0.058;2023-02-10T06:02:00;103357.46;;;-0.85;98.13
56070;BME280;41944;52.078;-0.058;2023-02-10T06:04:27;103356.47;;;-0.99;98.75
56070;BME280;41944;52.078;-0.058;2023-02-10T06:06:53;103356.13;;;-1.05;99.09
56070;BME280;41944;52.078;-0.058;2023-02-10T06:09:20;103356.65;;;-0.93;98.54
56070;BME280;41944;52.078;-0.058;2023-02-10T06:11:48;103357.37;;;-1.03;98.49
56070;BME280;41944;52.078;-0.058;2023-02-10T06:14:15;103348.95;;;-0.76;98.00
56070;BME280;41944;52.078;-0.058;2023-02-10T06:16:42;103351.65;;;-0.84;97.97
56070;BME280;41944;52.078;-0.058;2023-02-10T06:19:09;103358.92;;;-0.85;97.97
56070;BME280;41944;52.078;-0.058;2023-02-10T06:21:35;103363.90;;;-0.90;98.30
56070;BME280;41944;52.078;-0.058;2023-02-10T06:24:03;103362.55;;;-0.95;98.72
56070;BME280;41944;52.078;-0.058;2023-02-10T06:26:30;103362.54;;;-0.85;97.99
56070;BME280;41944;52.078;-0.058;2023-02-10T06:28:57;103357.54;;;-0.84;97.89
56070;BME280;41944;52.078;-0.058;2023-02-10T06:31:24;103354.08;;;-0.73;97.66
56070;BME280;41944;52.078;-0.058;2023-02-10T06:33:52;103361.69;;;-0.84;97.37
56070;BME280;41944;52.078;-0.058;2023-02-10T06:36:18;103358.36;;;-0.91;97.59
56070;BME280;41944;52.078;-0.058;2023-02-10T06:38:45;103361.28;;;-0.91;97.66
56070;BME280;41944;52.078;-0.058;2023-02-10T06:41:12;103360.02;;;-0.87;97.83
56070;BME280;41944;52.078;-0.058;2023-02-10T06:43:39;103358.06;;;-0.85;97.86
56070;BME280;41944;52.078;-0.058;2023-02-10T06:46:06;103357.09;;;-0.77;98.00
56070;BME280;41944;52.078;-0.058;2023-02-10T06:48:34;103358.67;;;-0.73;98.39
56070;BME280;41944;52.078;-0.058;2023-02-10T06:51:01;103360.00;;;-0.55;97.64
56070;BME280;41944;52.078;-0.058;2023-02-10T06:53:29;103366.09;;;-0.50;97.46
56070;BME280;41944;52.078;-0.058;2023-02-10T06:55:56;103369.18;;;-0.66;96.69
56070;BME280;41944;52.078;-0.058;2023-02-10T06:58:23;103371.19;;;-0.26;95.34
56070;BME280;41944;52.078;-0.058;2023-02-10T07:00:50;103368.81;;;-0.37;94.45
56070;BME280;41944;52.078;-0.058;2023-02-10T07:03:18;103362.88;;;-0.40;93.39
56070;BME280;41944;52.078;-0.058;2023-02-10T07:05:45;103354.87;;;-0.54;93.82
56070;BME280;41944;52.078;-0.058;2023-02-10T07:08:12;103350.95;;;-0.59;94.48
56070;BME280;41944;52.078;-0.058;2023-02-10T07:10:39;103354.07;;;-0.73;95.04
56070;BME280;41944;52.078;-0.058;2023-02-10T07:13:07;103361.08;;;-0.55;94.57
56070;BME280;41944;52.078;-0.058;2023-02-10T07:15:34;103362.72;;;-0.51;94.32
56070;BME280;41944;52.078;-0.058;2023-02-10T07:18:02;103366.03;;;-0.59;94.32
56070;BME280;41944;52.078;-0.058;2023-02-10T07:20:29;103364.94;;;-0.62;94.78
56070;BME280;41944;52.078;-0.058;2023-02-10T07:22:57;103361.96;;;-0.54;94.38
56070;BME280;41944;52.078;-0.058;2023-02-10T07:25:24;103358.00;;;-0.46;94.51
56070;BME280;41944;52.078;-0.058;2023-02-10T07:27:51;103357.32;;;-0.48;93.88
56070;BME280;41944;52.078;-0.058;2023-02-10T07:30:18;103353.31;;;-0.36;93.76
56070;BME280;41944;52.078;-0.058;2023-02-10T07:32:45;103353.09;;;-0.48;94.03
56070;BME280;41944;52.078;-0.058;2023-02-10T07:35:12;103352.71;;;-0.55;94.65
56070;BME280;41944;52.078;-0.058;2023-02-10T07:37:40;103342.47;;;-0.59;95.29
56070;BME280;41944;52.078;-0.058;2023-02-10T07:40:08;103335.75;;;-0.42;95.18
56070;BME280;41944;52.078;-0.058;2023-02-10T07:42:35;103334.35;;;-0.08;94.32
56070;BME280;41944;52.078;-0.058;2023-02-10T07:45:03;103341.87;;;0.02;93.84
56070;BME280;41944;52.078;-0.058;2023-02-10T07:47:30;103342.15;;;0.16;92.72
56070;BME280;41944;52.078;-0.058;2023-02-10T07:49:57;103342.04;;;0.13;92.89
56070;BME280;41944;52.078;-0.058;2023-02-10T07:52:24;103339.29;;;0.03;93.03
56070;BME280;41944;52.078;-0.058;2023-02-10T07:54:51;103337.78;;;0.07;93.05
56070;BME280;41944;52.078;-0.058;2023-02-10T07:57:18;103335.35;;;0.27;92.44
56070;BME280;41944;52.078;-0.058;2023-02-10T07:59:45;103332.42;;;0.27;92.24
56070;BME280;41944;52.078;-0.058;2023-02-10T08:02:13;103329.15;;;0.40;92.17
56070;BME280;41944;52.078;-0.058;2023-02-10T08:04:40;103326.05;;;0.43;92.96
56070;BME280;41944;52.078;-0.058;2023-02-10T08:07:07;103325.60;;;0.45;93.20
56070;BME280;41944;52.078;-0.058;2023-02-10T08:09:34;103333.83;;;0.73;93.74
56070;BME280;41944;52.078;-0.058;2023-02-10T08:12:01;103334.33;;;0.98;93.88
56070;BME280;41944;52.078;-0.058;2023-02-10T08:14:28;103334.24;;;1.23;93.71
56070;BME280;41944;52.078;-0.058;2023-02-10T08:16:55;103337.71;;;1.43;93.58
56070;BME280;41944;52.078;-0.058;2023-02-10T08:19:23;103336.46;;;1.53;93.75
56070;BME280;41944;52.078;-0.058;2023-02-10T08:21:50;103336.98;;;1.62;94.11
56070;BME280;41944;52.078;-0.058;2023-02-10T08:24:17;103342.29;;;1.84;93.51
56070;BME280;41944;52.078;-0.058;2023-02-10T08:26:43;103352.00;;;2.03;92.93
56070;BME280;41944;52.078;-0.058;2023-02-10T08:29:10;103359.40;;;2.26;91.99
56070;BME280;41944;52.078;-0.058;2023-02-10T08:31:37;103360.18;;;2.35;91.76
56070;BME280;41944;52.078;-0.058;2023-02-10T08:34:04;103362.46;;;2.59;90.66
56070;BME280;41944;52.078;-0.058;2023-02-10T08:36:31;103371.14;;;2.67;90.02
56070;BME280;41944;52.078;-0.058;2023-02-10T08:38:58;103369.18;;;2.74;89.96
56070;BME280;41944;52.078;-0.058;2023-02-10T08:41:26;103369.91;;;3.12;90.28
56070;BME280;41944;52.078;-0.058;2023-02-10T08:43:53;103377.34;;;3.20;87.50
56070;BME280;41944;52.078;-0.058;2023-02-10T08:46:20;103385.29;;;3.25;86.45
56070;BME280;41944;52.078;-0.058;2023-02-10T08:48:47;103379.98;;;3.02;87.34
56070;BME280;41944;52.078;-0.058;2023-02-10T08:51:15;103374.56;;;3.19;86.75
56070;BME280;41944;52.078;-0.058;2023-02-10T08:53:43;103370.26;;;3.34;85.90
56070;BME280;41944;52.078;-0.058;2023-02-10T08:56:13;103357.43;;;3.35;85.64
56070;BME280;41944;52.078;-0.058;2023-02-10T08:58:40;103349.50;;;3.38;85.65
56070;BME280;41944;52.078;-0.058;2023-02-10T09:01:09;103348.82;;;3.48;85.04
56070;BME280;41944;52.078;-0.058;2023-02-10T09:03:37;103348.61;;;3.53;84.80
56070;BME280;41944;52.078;-0.058;2023-02-10T09:06:05;103340.99;;;3.47;85.20
56070;BME280;41944;52.078;-0.058;2023-02-10T09:08:32;103336.57;;;3.71;84.45
56070;BME280;41944;52.078;-0.058;2023-02-10T09:10:58;103339.68;;;3.79;83.67
56070;BME280;41944;52.078;-0.058;2023-02-10T09:13:25;103342.30;;;3.94;83.48
56070;BME280;41944;52.078;-0.058;2023-02-10T09:15:52;103347.69;;;4.02;82.55
56070;BME280;41944;52.078;-0.058;2023-02-10T09:18:19;103358.03;;;4.13;82.05
56070;BME280;41944;52.078;-0.058;2023-02-10T09:20:46;103358.03;;;4.21;82.04
56070;BME280;41944;52.078;-0.058;2023-02-10T09:23:13;103358.30;;;4.21;82.47
56070;BME280;41944;52.078;-0.058;2023-02-10T09:25:40;103350.00;;;4.45;81.77
56070;BME280;41944;52.078;-0.058;2023-02-10T09:28:07;103346.36;;;4.67;80.75
56070;BME280;41944;52.078;-0.058;2023-02-10T09:30:34;103342.54;;;4.68;80.95
56070;BME280;41944;52.078;-0.058;2023-02-10T09:33:02;103340.49;;;4.81;81.14
56070;BME280;41944;52.078;-0.058;2023-02-10T09:35:28;103342.88;;;4.96;80.50
56070;BME280;41944;52.078;-0.058;2023-02-10T09:37:55;103348.99;;;5.11;79.89
56070;BME280;41944;52.078;-0.058;2023-02-10T09:40:27;103359.74;;;5.21;79.77
56070;BME280;41944;52.078;-0.058;2023-02-10T09:43:07;103360.02;;;5.51;78.29
56070;BME280;41944;52.078;-0.058;2023-02-10T09:45:39;103363.91;;;5.48;78.99
56070;BME280;41944;52.078;-0.058;2023-02-10T09:48:21;103368.06;;;5.66;78.09
56070;BME280;41944;52.078;-0.058;2023-02-10T09:51:01;103367.94;;;5.91;76.40
56070;BME280;41944;52.078;-0.058;2023-02-10T09:53:31;103378.79;;;5.93;76.16
56070;BME280;41944;52.078;-0.058;2023-02-10T09:56:00;103382.88;;;6.09;75.46
56070;BME280;41944;52.078;-0.058;2023-02-10T09:58:32;103385.45;;;6.22;75.33
56070;BME280;41944;52.078;-0.058;2023-02-10T10:01:05;103390.87;;;6.21;75.65
56070;BME280;41944;52.078;-0.058;2023-02-10T10:03:43;103395.68;;;6.33;75.67
56070;BME280;41944;52.078;-0.058;2023-02-10T10:06:20;103394.88;;;6.49;74.99
56070;BME280;41944;52.078;-0.058;2023-02-10T10:08:57;103385.72;;;6.63;73.99
56070;BME280;41944;52.078;-0.058;2023-02-10T10:11:37;103388.93;;;6.85;72.60
56070;BME280;41944;52.078;-0.058;2023-02-10T10:14:08;103394.44;;;6.92;72.80
56070;BME280;41944;52.078;-0.058;2023-02-10T10:16:50;103389.72;;;7.07;72.33
56070;BME280;41944;52.078;-0.058;2023-02-10T10:19:31;103386.89;;;7.20;71.69
56070;BME280;41944;52.078;-0.058;2023-02-10T10:22:12;103380.98;;;7.37;70.42
56070;BME280;41944;52.078;-0.058;2023-02-10T10:24:56;103378.87;;;7.51;69.58
56070;BME280;41944;52.078;-0.058;2023-02-10T10:27:35;103383.67;;;7.52;69.72
56070;BME280;41944;52.078;-0.058;2023-02-10T10:30:14;103380.45;;;7.56;70.14
56070;BME280;41944;52.078;-0.058;2023-02-10T10:32:46;103375.89;;;7.72;68.92
56070;BME280;41944;52.078;-0.058;2023-02-10T10:35:16;103377.85;;;7.83;68.14
56070;BME280;41944;52.078;-0.058;2023-02-10T10:37:44;103380.59;;;7.80;68.68
56070;BME280;41944;52.078;-0.058;2023-02-10T10:40:17;103380.77;;;7.97;67.69
56070;BME280;41944;52.078;-0.058;2023-02-10T10:42:47;103381.63;;;8.04;67.43
56070;BME280;41944;52.078;-0.058;2023-02-10T10:45:19;103380.01;;;8.03;66.98
56070;BME280;41944;52.078;-0.058;2023-02-10T10:47:50;103382.55;;;8.05;66.20
56070;BME280;41944;52.078;-0.058;2023-02-10T10:50:21;103373.15;;;8.04;65.59
56070;BME280;41944;52.078;-0.058;2023-02-10T10:52:51;103373.13;;;7.98;65.96
56070;BME280;41944;52.078;-0.058;2023-02-10T10:55:23;103372.03;;;8.09;65.06
56070;BME280;41944;52.078;-0.058;2023-02-10T10:57:53;103371.69;;;7.99;65.95
56070;BME280;41944;52.078;-0.058;2023-02-10T11:00:24;103367.74;;;7.96;66.18
56070;BME280;41944;52.078;-0.058;2023-02-10T11:02:54;103368.87;;;8.17;65.40
56070;BME280;41944;52.078;-0.058;2023-02-10T11:05:24;103363.98;;;8.28;64.58
56070;BME280;41944;52.078;-0.058;2023-02-10T11:07:53;103361.21;;;8.20;65.38
56070;BME280;41944;52.078;-0.058;2023-02-10T11:10:25;103354.27;;;8.37;64.28
56070;BME280;41944;52.078;-0.058;2023-02-10T11:12:53;103350.78;;;8.33;64.66
56070;BME280;41944;52.078;-0.058;2023-02-10T11:15:31;103345.11;;;8.41;63.73
56070;BME280;41944;52.078;-0.058;2023-02-10T11:18:00;103335.88;;;8.30;63.93
56070;BME280;41944;52.078;-0.058;2023-02-10T11:20:30;103341.29;;;8.37;63.58
56070;BME280;41944;52.078;-0.058;2023-02-10T11:22:58;103337.23;;;8.37;63.90
56070;BME280;41944;52.078;-0.058;2023-02-10T11:25:28;103325.47;;;8.42;63.65
56070;BME280;41944;52.078;-0.058;2023-02-10T11:27:57;103319.28;;;8.39;64.33
56070;BME280;41944;52.078;-0.058;2023-02-10T11:30:27;103310.56;;;8.44;64.58
56070;BME280;41944;52.078;-0.058;2023-02-10T11:32:54;103314.05;;;8.48;65.09
56070;BME280;41944;52.078;-0.058;2023-02-10T11:35:22;103310.80;;;8.55;64.64
56070;BME280;41944;52.078;-0.058;2023-02-10T11:37:53;103306.65;;;8.57;64.05
56070;BME280;41944;52.078;-0.058;2023-02-10T11:40:25;103300.49;;;8.52;64.08
56070;BME280;41944;52.078;-0.058;2023-02-10T11:42:55;103296.77;;;8.57;64.43
56070;BME280;41944;52.078;-0.058;2023-02-10T11:45:24;103298.23;;;8.64;64.90
56070;BME280;41944;52.078;-0.058;2023-02-10T11:48:01;103298.35;;;8.69;64.99
56070;BME280;41944;52.078;-0.058;2023-02-10T11:50:30;103291.92;;;8.78;64.72
56070;BME280;41944;52.078;-0.058;2023-02-10T11:52:58;103283.48;;;8.77;65.42
56070;BME280;41944;52.078;-0.058;2023-02-10T11:55:33;103276.95;;;8.85;65.57
56070;BME280;41944;52.078;-0.058;2023-02-10T11:58:18;103272.56;;;8.90;65.77
56070;BME280;41944;52.078;-0.058;2023-02-10T12:00:54;103265.36;;;8.91;66.38
56070;BME280;41944;52.078;-0.058;2023-02-10T12:03:35;103261.46;;;8.86;66.89
56070;BME280;41944;52.078;-0.058;2023-02-10T12:06:12;103261.41;;;8.99;67.15
56070;BME280;41944;52.078;-0.058;2023-02-10T12:08:51;103262.36;;;9.13;66.18
56070;BME280;41944;52.078;-0.058;2023-02-10T12:11:25;103262.82;;;9.19;65.82
56070;BME280;41944;52.078;-0.058;2023-02-10T12:14:00;103260.37;;;9.23;66.17
56070;BME280;41944;52.078;-0.058;2023-02-10T12:16:35;103263.23;;;9.25;65.69
56070;BME280;41944;52.078;-0.058;2023-02-10T12:19:15;103264.29;;;9.22;64.66
56070;BME280;41944;52.078;-0.058;2023-02-10T12:21:55;103270.32;;;9.30;66.67
56070;BME280;41944;52.078;-0.058;2023-02-10T12:24:38;103268.01;;;9.46;66.04
56070;BME280;41944;52.078;-0.058;2023-02-10T12:27:14;103268.87;;;9.51;65.55
56070;BME280;41944;52.078;-0.058;2023-02-10T12:29:51;103264.97;;;9.60;65.47
56070;BME280;41944;52.078;-0.058;2023-02-10T12:32:29;103274.05;;;9.66;65.57
56070;BME280;41944;52.078;-0.058;2023-02-10T12:35:13;103270.06;;;9.63;65.29
56070;BME280;41944;52.078;-0.058;2023-02-10T12:37:50;103267.27;;;9.72;65.27
56070;BME280;41944;52.078;-0.058;2023-02-10T12:40:28;103273.19;;;9.86;65.18
56070;BME280;41944;52.078;-0.058;2023-02-10T12:43:05;103268.88;;;10.02;64.93
56070;BME280;41944;52.078;-0.058;2023-02-10T12:45:42;103269.74;;;10.08;64.44
56070;BME280;41944;52.078;-0.058;2023-02-10T12:48:22;103272.38;;;10.13;64.44
56070;BME280;41944;52.078;-0.058;2023-02-10T12:51:10;103270.13;;;10.27;64.17
56070;BME280;41944;52.078;-0.058;2023-02-10T12:53:43;103270.06;;;10.27;64.91
56070;BME280;41944;52.078;-0.058;2023-02-10T12:56:17;103265.60;;;10.31;64.94